This is the latest recevied weather packets stored in our database for station/object KN4FVH. If no packets are shown the sender has not sent any weather packets the latest 1 day(s).
| Time | Temp. | Humidity | Pressure | Rain* | Wind** | Luminosity | Snow |
|---|---|---|---|---|---|---|---|
| 1778005761 | 26.67° C | 43% | 1017.4 hPa | 0 mm | 0.45 m/s, 166° | 32 W/m² | - |
| 1778005458 | 26.67° C | 43% | 1017.8 hPa | 0 mm | 0.45 m/s, 164° | 41 W/m² | - |
| 1778005149 | 26.11° C | 46% | 1017.8 hPa | 0 mm | 0.45 m/s, 175° | 27 W/m² | - |
| 1778004846 | 26.67° C | 43% | 1018 hPa | 0 mm | 0 m/s | 27 W/m² | - |
| 1778004543 | 26.11° C | 44% | 1017.7 hPa | 0 mm | 0 m/s | 38 W/m² | - |
| 1778004239 | 26.11° C | 45% | 1017.9 hPa | 0 mm | 0.45 m/s, 175° | 32 W/m² | - |
| 1778003935 | 26.11° C | 42% | 1017.9 hPa | 0 mm | 0.45 m/s, 158° | 27 W/m² | - |
| 1778003632 | 26.11° C | 44% | 1017.7 hPa | 0 mm | 0 m/s | 26 W/m² | - |
| 1778003328 | 26.11° C | 43% | 1017.6 hPa | 0 mm | 0.45 m/s, 213° | 27 W/m² | - |
| 1778003026 | 26.11° C | 44% | 1017.8 hPa | 0 mm | 0 m/s | 24 W/m² | - |
| 1778002722 | 26.11° C | 43% | 1017.7 hPa | 0 mm | 0 m/s | 26 W/m² | - |
| 1778002419 | 26.11° C | 43% | 1017.8 hPa | 0 mm | 0 m/s | 19 W/m² | - |
| 1778002116 | 26.11° C | 42% | 1017.8 hPa | 0 mm | 0 m/s | 17 W/m² | - |
| 1778001814 | 26.11° C | 45% | 1018 hPa | 0 mm | 0.45 m/s, 188° | 15 W/m² | - |
| 1778001513 | 25.56° C | 45% | 1018.1 hPa | 0 mm | 0.45 m/s, 174° | 13 W/m² | - |
| 1778001210 | 26.11° C | 41% | 1017.8 hPa | 0 mm | 0.45 m/s, 195° | 16 W/m² | - |
| 1778000907 | 26.11° C | 45% | 1018.2 hPa | 0 mm | 0.45 m/s, 186° | 34 W/m² | - |
| 1778000603 | 25.56° C | 49% | 1018.2 hPa | 0 mm | 0 m/s | 14 W/m² | - |
| 1778000299 | 25.56° C | 44% | 1018 hPa | 0 mm | 0.45 m/s, 202° | 11 W/m² | - |
| 1777999995 | 25.56° C | 48% | 1018.3 hPa | 0 mm | 0.45 m/s, 157° | 16 W/m² | - |
| 1777999690 | 25.56° C | 45% | 1018.4 hPa | 0 mm | 0.45 m/s, 186° | 12 W/m² | - |
| 1777999388 | 25° C | 45% | 1018.4 hPa | 0 mm | 0.45 m/s, 353° | 14 W/m² | - |
| 1777999086 | 25° C | 47% | 1018.4 hPa | 0 mm | 0.45 m/s, 243° | 12 W/m² | - |
| 1777998784 | 25° C | 47% | 1018.3 hPa | 0 mm | 0.89 m/s, 223° | 11 W/m² | - |
| 1777998482 | 25° C | 49% | 1018.4 hPa | 0 mm | 0 m/s | 10 W/m² | - |
* Rain latest hour (hover to see other rain measurements)
** Current wind speed in m/s (hover to see current wind gust speed)